sensor_id;sensor_type;location;lat;lon;timestamp;P1;durP1;ratioP1;P2;durP2;ratioP2
64667;SDS011;51077;42.716;23.344;2023-02-28T00:00:15;11.65;;;7.72;;
64667;SDS011;51077;42.716;23.344;2023-02-28T00:02:42;15.97;;;8.97;;
64667;SDS011;51077;42.716;23.344;2023-02-28T00:05:09;14.35;;;8.45;;
64667;SDS011;51077;42.716;23.344;2023-02-28T00:07:36;11.65;;;7.78;;
64667;SDS011;51077;42.716;23.344;2023-02-28T00:10:02;14.40;;;8.65;;
64667;SDS011;51077;42.716;23.344;2023-02-28T00:12:29;15.05;;;10.02;;
64667;SDS011;51077;42.716;23.344;2023-02-28T00:14:54;21.13;;;12.17;;
64667;SDS011;51077;42.716;23.344;2023-02-28T00:17:20;17.13;;;10.50;;
64667;SDS011;51077;42.716;23.344;2023-02-28T00:19:49;15.90;;;10.47;;
64667;SDS011;51077;42.716;23.344;2023-02-28T00:22:16;14.15;;;10.02;;
64667;SDS011;51077;42.716;23.344;2023-02-28T00:24:43;14.93;;;9.63;;
64667;SDS011;51077;42.716;23.344;2023-02-28T00:27:09;13.20;;;8.40;;
64667;SDS011;51077;42.716;23.344;2023-02-28T00:29:34;14.13;;;9.27;;
64667;SDS011;51077;42.716;23.344;2023-02-28T00:32:00;15.00;;;9.10;;
64667;SDS011;51077;42.716;23.344;2023-02-28T00:34:25;14.07;;;9.83;;
64667;SDS011;51077;42.716;23.344;2023-02-28T00:36:51;13.00;;;8.57;;
64667;SDS011;51077;42.716;23.344;2023-02-28T00:39:16;13.37;;;9.33;;
64667;SDS011;51077;42.716;23.344;2023-02-28T00:41:42;15.70;;;8.97;;
64667;SDS011;51077;42.716;23.344;2023-02-28T00:44:08;15.97;;;9.77;;
64667;SDS011;51077;42.716;23.344;2023-02-28T00:46:33;12.27;;;8.10;;
64667;SDS011;51077;42.716;23.344;2023-02-28T00:48:58;16.03;;;8.67;;
64667;SDS011;51077;42.716;23.344;2023-02-28T00:51:24;12.23;;;8.43;;
64667;SDS011;51077;42.716;23.344;2023-02-28T00:53:49;14.53;;;8.93;;
64667;SDS011;51077;42.716;23.344;2023-02-28T00:56:15;13.57;;;8.40;;
64667;SDS011;51077;42.716;23.344;2023-02-28T00:58:40;13.03;;;8.80;;
64667;SDS011;51077;42.716;23.344;2023-02-28T01:01:05;13.37;;;8.73;;
64667;SDS011;51077;42.716;23.344;2023-02-28T01:03:31;13.00;;;8.50;;
64667;SDS011;51077;42.716;23.344;2023-02-28T01:05:57;12.00;;;7.87;;
64667;SDS011;51077;42.716;23.344;2023-02-28T01:08:23;11.43;;;7.87;;
64667;SDS011;51077;42.716;23.344;2023-02-28T01:10:48;13.47;;;8.60;;
64667;SDS011;51077;42.716;23.344;2023-02-28T01:13:14;10.93;;;8.07;;
64667;SDS011;51077;42.716;23.344;2023-02-28T01:15:41;17.65;;;8.23;;
64667;SDS011;51077;42.716;23.344;2023-02-28T01:18:10;13.73;;;8.25;;
64667;SDS011;51077;42.716;23.344;2023-02-28T01:20:38;11.60;;;8.00;;
64667;SDS011;51077;42.716;23.344;2023-02-28T01:23:04;12.27;;;8.07;;
64667;SDS011;51077;42.716;23.344;2023-02-28T01:25:29;13.53;;;8.60;;
64667;SDS011;51077;42.716;23.344;2023-02-28T01:27:55;13.33;;;8.53;;
64667;SDS011;51077;42.716;23.344;2023-02-28T01:30:20;14.07;;;8.03;;
64667;SDS011;51077;42.716;23.344;2023-02-28T01:32:46;14.50;;;8.77;;
64667;SDS011;51077;42.716;23.344;2023-02-28T01:35:11;11.77;;;7.90;;
64667;SDS011;51077;42.716;23.344;2023-02-28T01:37:37;15.63;;;9.00;;
64667;SDS011;51077;42.716;23.344;2023-02-28T01:40:02;18.07;;;11.80;;
64667;SDS011;51077;42.716;23.344;2023-02-28T01:42:28;17.58;;;12.32;;
64667;SDS011;51077;42.716;23.344;2023-02-28T01:45:01;13.77;;;9.60;;
64667;SDS011;51077;42.716;23.344;2023-02-28T01:47:47;13.65;;;8.95;;
64667;SDS011;51077;42.716;23.344;2023-02-28T01:50:17;13.20;;;8.60;;
64667;SDS011;51077;42.716;23.344;2023-02-28T01:52:45;11.55;;;8.45;;
64667;SDS011;51077;42.716;23.344;2023-02-28T01:55:13;15.30;;;9.30;;
64667;SDS011;51077;42.716;23.344;2023-02-28T01:57:43;11.52;;;8.52;;
64667;SDS011;51077;42.716;23.344;2023-02-28T02:00:14;11.93;;;8.20;;
64667;SDS011;51077;42.716;23.344;2023-02-28T02:02:42;12.95;;;8.15;;
64667;SDS011;51077;42.716;23.344;2023-02-28T02:05:11;12.98;;;8.50;;
64667;SDS011;51077;42.716;23.344;2023-02-28T02:07:41;17.05;;;8.82;;
64667;SDS011;51077;42.716;23.344;2023-02-28T02:15:14;12.85;;;9.00;;
64667;SDS011;51077;42.716;23.344;2023-02-28T02:17:44;14.50;;;8.60;;
64667;SDS011;51077;42.716;23.344;2023-02-28T02:20:37;12.98;;;8.93;;
64667;SDS011;51077;42.716;23.344;2023-02-28T02:31:28;14.88;;;8.75;;
64667;SDS011;51077;42.716;23.344;2023-02-28T02:41:53;13.63;;;9.50;;
64667;SDS011;51077;42.716;23.344;2023-02-28T02:44:21;14.30;;;8.50;;
64667;SDS011;51077;42.716;23.344;2023-02-28T02:46:51;14.85;;;8.77;;
64667;SDS011;51077;42.716;23.344;2023-02-28T02:49:28;14.07;;;9.07;;
64667;SDS011;51077;42.716;23.344;2023-02-28T02:51:58;15.07;;;8.25;;
64667;SDS011;51077;42.716;23.344;2023-02-28T02:54:36;14.48;;;8.23;;
64667;SDS011;51077;42.716;23.344;2023-02-28T02:57:52;13.32;;;8.50;;
64667;SDS011;51077;42.716;23.344;2023-02-28T03:00:09;12.18;;;7.82;;
64667;SDS011;51077;42.716;23.344;2023-02-28T03:02:36;13.95;;;8.18;;
64667;SDS011;51077;42.716;23.344;2023-02-28T03:05:26;12.65;;;8.32;;
64667;SDS011;51077;42.716;23.344;2023-02-28T03:07:56;13.90;;;9.20;;
64667;SDS011;51077;42.716;23.344;2023-02-28T03:10:28;12.40;;;7.87;;
64667;SDS011;51077;42.716;23.344;2023-02-28T03:13:00;13.02;;;8.88;;
64667;SDS011;51077;42.716;23.344;2023-02-28T03:15:33;13.52;;;8.80;;
64667;SDS011;51077;42.716;23.344;2023-02-28T03:18:24;11.65;;;7.85;;
64667;SDS011;51077;42.716;23.344;2023-02-28T03:21:01;14.23;;;8.38;;
64667;SDS011;51077;42.716;23.344;2023-02-28T03:23:31;14.90;;;9.02;;
64667;SDS011;51077;42.716;23.344;2023-02-28T03:26:07;11.35;;;8.32;;
64667;SDS011;51077;42.716;23.344;2023-02-28T03:28:40;15.57;;;10.18;;
64667;SDS011;51077;42.716;23.344;2023-02-28T03:31:21;17.60;;;11.20;;
64667;SDS011;51077;42.716;23.344;2023-02-28T03:36:30;18.25;;;11.00;;
64667;SDS011;51077;42.716;23.344;2023-02-28T03:39:08;17.40;;;10.85;;
64667;SDS011;51077;42.716;23.344;2023-02-28T03:41:40;20.13;;;9.88;;
64667;SDS011;51077;42.716;23.344;2023-02-28T03:44:14;18.38;;;11.18;;
64667;SDS011;51077;42.716;23.344;2023-02-28T03:46:47;19.17;;;11.30;;
64667;SDS011;51077;42.716;23.344;2023-02-28T03:51:49;17.83;;;11.82;;
64667;SDS011;51077;42.716;23.344;2023-02-28T03:54:18;18.77;;;11.68;;
64667;SDS011;51077;42.716;23.344;2023-02-28T03:56:59;21.63;;;11.35;;
64667;SDS011;51077;42.716;23.344;2023-02-28T03:59:32;19.83;;;12.70;;
64667;SDS011;51077;42.716;23.344;2023-02-28T04:02:02;19.42;;;11.75;;
64667;SDS011;51077;42.716;23.344;2023-02-28T04:04:27;17.60;;;11.93;;
64667;SDS011;51077;42.716;23.344;2023-02-28T04:06:53;18.80;;;11.30;;
64667;SDS011;51077;42.716;23.344;2023-02-28T04:09:27;19.17;;;12.38;;
64667;SDS011;51077;42.716;23.344;2023-02-28T04:11:52;17.77;;;11.13;;
64667;SDS011;51077;42.716;23.344;2023-02-28T04:14:20;19.33;;;12.85;;
64667;SDS011;51077;42.716;23.344;2023-02-28T04:16:46;20.73;;;12.80;;
64667;SDS011;51077;42.716;23.344;2023-02-28T04:19:12;19.73;;;12.67;;
64667;SDS011;51077;42.716;23.344;2023-02-28T04:21:39;22.25;;;14.00;;
64667;SDS011;51077;42.716;23.344;2023-02-28T04:24:10;25.42;;;14.02;;
64667;SDS011;51077;42.716;23.344;2023-02-28T04:26:42;24.58;;;15.25;;
64667;SDS011;51077;42.716;23.344;2023-02-28T04:29:09;19.70;;;12.18;;
64667;SDS011;51077;42.716;23.344;2023-02-28T04:31:36;20.25;;;11.73;;
64667;SDS011;51077;42.716;23.344;2023-02-28T04:34:02;20.63;;;12.10;;
64667;SDS011;51077;42.716;23.344;2023-02-28T04:36:28;26.08;;;13.68;;
64667;SDS011;51077;42.716;23.344;2023-02-28T04:38:54;22.42;;;13.15;;
64667;SDS011;51077;42.716;23.344;2023-02-28T04:41:20;22.58;;;13.40;;
64667;SDS011;51077;42.716;23.344;2023-02-28T04:43:46;23.20;;;13.50;;
64667;SDS011;51077;42.716;23.344;2023-02-28T04:46:12;26.88;;;14.25;;
64667;SDS011;51077;42.716;23.344;2023-02-28T04:48:38;23.43;;;12.60;;
64667;SDS011;51077;42.716;23.344;2023-02-28T04:51:06;24.02;;;12.90;;
64667;SDS011;51077;42.716;23.344;2023-02-28T04:53:33;23.33;;;12.68;;
64667;SDS011;51077;42.716;23.344;2023-02-28T04:56:00;25.00;;;14.18;;
64667;SDS011;51077;42.716;23.344;2023-02-28T04:58:26;24.52;;;12.65;;
64667;SDS011;51077;42.716;23.344;2023-02-28T05:00:53;21.80;;;12.95;;
64667;SDS011;51077;42.716;23.344;2023-02-28T05:03:19;22.15;;;12.70;;
64667;SDS011;51077;42.716;23.344;2023-02-28T05:05:46;20.83;;;12.93;;
64667;SDS011;51077;42.716;23.344;2023-02-28T05:08:11;22.98;;;12.43;;
64667;SDS011;51077;42.716;23.344;2023-02-28T05:10:37;20.27;;;12.47;;
64667;SDS011;51077;42.716;23.344;2023-02-28T05:13:02;21.13;;;12.43;;
64667;SDS011;51077;42.716;23.344;2023-02-28T05:15:28;22.77;;;13.53;;
64667;SDS011;51077;42.716;23.344;2023-02-28T05:17:53;23.10;;;13.07;;
64667;SDS011;51077;42.716;23.344;2023-02-28T05:20:19;24.80;;;13.37;;
64667;SDS011;51077;42.716;23.344;2023-02-28T05:22:45;22.48;;;12.55;;
64667;SDS011;51077;42.716;23.344;2023-02-28T05:25:19;23.47;;;12.97;;
64667;SDS011;51077;42.716;23.344;2023-02-28T05:27:47;23.90;;;14.23;;
64667;SDS011;51077;42.716;23.344;2023-02-28T05:30:12;21.97;;;13.10;;
64667;SDS011;51077;42.716;23.344;2023-02-28T05:32:38;25.80;;;13.33;;
64667;SDS011;51077;42.716;23.344;2023-02-28T05:35:08;24.95;;;13.50;;
64667;SDS011;51077;42.716;23.344;2023-02-28T05:37:34;22.67;;;13.93;;
64667;SDS011;51077;42.716;23.344;2023-02-28T05:40:00;21.90;;;12.83;;
64667;SDS011;51077;42.716;23.344;2023-02-28T05:42:26;20.65;;;13.25;;
64667;SDS011;51077;42.716;23.344;2023-02-28T05:44:51;21.63;;;13.07;;
64667;SDS011;51077;42.716;23.344;2023-02-28T05:47:17;24.40;;;14.10;;
64667;SDS011;51077;42.716;23.344;2023-02-28T05:49:42;24.10;;;14.30;;
64667;SDS011;51077;42.716;23.344;2023-02-28T05:52:08;23.27;;;13.40;;
64667;SDS011;51077;42.716;23.344;2023-02-28T05:54:33;25.47;;;14.00;;
64667;SDS011;51077;42.716;23.344;2023-02-28T05:56:58;25.30;;;14.30;;
64667;SDS011;51077;42.716;23.344;2023-02-28T05:59:24;23.77;;;12.93;;
64667;SDS011;51077;42.716;23.344;2023-02-28T06:01:49;23.53;;;13.47;;
64667;SDS011;51077;42.716;23.344;2023-02-28T06:04:16;24.37;;;13.87;;
64667;SDS011;51077;42.716;23.344;2023-02-28T06:06:44;26.75;;;14.07;;
64667;SDS011;51077;42.716;23.344;2023-02-28T06:09:10;26.48;;;15.23;;
64667;SDS011;51077;42.716;23.344;2023-02-28T06:11:36;26.30;;;15.10;;
64667;SDS011;51077;42.716;23.344;2023-02-28T06:14:02;27.13;;;15.43;;
64667;SDS011;51077;42.716;23.344;2023-02-28T06:16:30;27.90;;;14.77;;
64667;SDS011;51077;42.716;23.344;2023-02-28T06:18:58;26.33;;;15.07;;
64667;SDS011;51077;42.716;23.344;2023-02-28T06:21:25;27.73;;;15.55;;
64667;SDS011;51077;42.716;23.344;2023-02-28T06:23:52;26.95;;;14.75;;
64667;SDS011;51077;42.716;23.344;2023-02-28T06:26:18;23.10;;;13.53;;
64667;SDS011;51077;42.716;23.344;2023-02-28T06:28:44;23.33;;;13.60;;
64667;SDS011;51077;42.716;23.344;2023-02-28T06:31:10;27.00;;;15.23;;
64667;SDS011;51077;42.716;23.344;2023-02-28T06:33:38;26.75;;;15.18;;
64667;SDS011;51077;42.716;23.344;2023-02-28T06:36:04;24.48;;;14.77;;
64667;SDS011;51077;42.716;23.344;2023-02-28T06:38:31;23.80;;;13.80;;
64667;SDS011;51077;42.716;23.344;2023-02-28T06:40:58;23.13;;;14.20;;
64667;SDS011;51077;42.716;23.344;2023-02-28T06:43:24;23.30;;;14.73;;
64667;SDS011;51077;42.716;23.344;2023-02-28T06:45:54;25.60;;;14.00;;
64667;SDS011;51077;42.716;23.344;2023-02-28T06:48:20;24.88;;;15.23;;
64667;SDS011;51077;42.716;23.344;2023-02-28T06:50:45;23.87;;;13.53;;
64667;SDS011;51077;42.716;23.344;2023-02-28T06:53:11;22.33;;;13.65;;
64667;SDS011;51077;42.716;23.344;2023-02-28T06:55:37;20.23;;;12.77;;
64667;SDS011;51077;42.716;23.344;2023-02-28T06:58:04;25.05;;;14.35;;
64667;SDS011;51077;42.716;23.344;2023-02-28T07:00:39;22.95;;;13.98;;
64667;SDS011;51077;42.716;23.344;2023-02-28T07:03:08;23.02;;;14.77;;
64667;SDS011;51077;42.716;23.344;2023-02-28T07:05:34;24.40;;;15.03;;
64667;SDS011;51077;42.716;23.344;2023-02-28T07:08:01;24.40;;;16.00;;
64667;SDS011;51077;42.716;23.344;2023-02-28T07:10:26;32.58;;;20.55;;
64667;SDS011;51077;42.716;23.344;2023-02-28T07:12:52;25.03;;;16.50;;
64667;SDS011;51077;42.716;23.344;2023-02-28T07:15:17;25.57;;;15.63;;
64667;SDS011;51077;42.716;23.344;2023-02-28T07:17:43;24.70;;;15.77;;
64667;SDS011;51077;42.716;23.344;2023-02-28T07:20:08;25.33;;;14.83;;
64667;SDS011;51077;42.716;23.344;2023-02-28T07:22:34;24.10;;;15.77;;
64667;SDS011;51077;42.716;23.344;2023-02-28T07:24:59;25.23;;;16.10;;
64667;SDS011;51077;42.716;23.344;2023-02-28T07:27:25;23.73;;;15.57;;
64667;SDS011;51077;42.716;23.344;2023-02-28T07:29:51;24.77;;;14.17;;
64667;SDS011;51077;42.716;23.344;2023-02-28T07:32:16;23.02;;;14.63;;
64667;SDS011;51077;42.716;23.344;2023-02-28T07:34:43;21.27;;;14.60;;
64667;SDS011;51077;42.716;23.344;2023-02-28T07:37:09;23.65;;;14.82;;
64667;SDS011;51077;42.716;23.344;2023-02-28T07:39:34;21.30;;;14.07;;
64667;SDS011;51077;42.716;23.344;2023-02-28T07:42:00;23.77;;;14.97;;
64667;SDS011;51077;42.716;23.344;2023-02-28T07:44:29;24.27;;;13.82;;
64667;SDS011;51077;42.716;23.344;2023-02-28T07:46:55;20.20;;;13.47;;
64667;SDS011;51077;42.716;23.344;2023-02-28T07:49:20;19.33;;;13.60;;
64667;SDS011;51077;42.716;23.344;2023-02-28T07:51:45;20.10;;;14.27;;
64667;SDS011;51077;42.716;23.344;2023-02-28T07:54:11;19.17;;;13.73;;
64667;SDS011;51077;42.716;23.344;2023-02-28T07:56:36;21.03;;;13.43;;
64667;SDS011;51077;42.716;23.344;2023-02-28T07:59:02;20.00;;;13.87;;
64667;SDS011;51077;42.716;23.344;2023-02-28T08:01:27;24.80;;;14.20;;
64667;SDS011;51077;42.716;23.344;2023-02-28T08:03:53;18.57;;;12.70;;
64667;SDS011;51077;42.716;23.344;2023-02-28T08:06:21;20.50;;;14.13;;
64667;SDS011;51077;42.716;23.344;2023-02-28T08:08:48;18.98;;;13.25;;
64667;SDS011;51077;42.716;23.344;2023-02-28T08:11:14;20.08;;;12.10;;
64667;SDS011;51077;42.716;23.344;2023-02-28T08:13:41;19.25;;;12.98;;
64667;SDS011;51077;42.716;23.344;2023-02-28T08:16:09;17.30;;;12.55;;
64667;SDS011;51077;42.716;23.344;2023-02-28T08:18:35;21.10;;;13.15;;
64667;SDS011;51077;42.716;23.344;2023-02-28T08:21:07;20.20;;;13.10;;
64667;SDS011;51077;42.716;23.344;2023-02-28T08:23:34;17.92;;;12.77;;
64667;SDS011;51077;42.716;23.344;2023-02-28T08:26:00;18.80;;;13.52;;
64667;SDS011;51077;42.716;23.344;2023-02-28T08:28:25;16.67;;;12.17;;
64667;SDS011;51077;42.716;23.344;2023-02-28T08:30:51;19.60;;;12.80;;
64667;SDS011;51077;42.716;23.344;2023-02-28T08:33:16;19.83;;;14.03;;
64667;SDS011;51077;42.716;23.344;2023-02-28T08:35:41;19.10;;;13.67;;
64667;SDS011;51077;42.716;23.344;2023-02-28T08:38:07;19.40;;;13.33;;
64667;SDS011;51077;42.716;23.344;2023-02-28T08:40:32;17.10;;;12.37;;
64667;SDS011;51077;42.716;23.344;2023-02-28T08:42:58;20.40;;;13.43;;
64667;SDS011;51077;42.716;23.344;2023-02-28T08:45:24;17.52;;;13.35;;
64667;SDS011;51077;42.716;23.344;2023-02-28T08:47:50;19.57;;;13.77;;
64667;SDS011;51077;42.716;23.344;2023-02-28T08:50:17;19.15;;;13.00;;
64667;SDS011;51077;42.716;23.344;2023-02-28T08:52:43;17.90;;;12.90;;
64667;SDS011;51077;42.716;23.344;2023-02-28T08:55:09;20.40;;;13.43;;
64667;SDS011;51077;42.716;23.344;2023-02-28T08:57:35;19.75;;;13.93;;
64667;SDS011;51077;42.716;23.344;2023-02-28T09:00:00;18.20;;;12.33;;
64667;SDS011;51077;42.716;23.344;2023-02-28T09:02:29;20.73;;;13.88;;
64667;SDS011;51077;42.716;23.344;2023-02-28T09:04:56;19.42;;;12.98;;
64667;SDS011;51077;42.716;23.344;2023-02-28T09:07:21;19.40;;;13.37;;
64667;SDS011;51077;42.716;23.344;2023-02-28T09:09:47;26.33;;;13.40;;
64667;SDS011;51077;42.716;23.344;2023-02-28T09:12:26;22.38;;;12.75;;
64667;SDS011;51077;42.716;23.344;2023-02-28T09:14:52;18.27;;;12.82;;
64667;SDS011;51077;42.716;23.344;2023-02-28T09:17:18;18.27;;;11.88;;
64667;SDS011;51077;42.716;23.344;2023-02-28T09:19:44;25.40;;;12.68;;
64667;SDS011;51077;42.716;23.344;2023-02-28T09:22:12;21.67;;;11.80;;
64667;SDS011;51077;42.716;23.344;2023-02-28T09:24:37;20.50;;;11.60;;
64667;SDS011;51077;42.716;23.344;2023-02-28T09:27:03;18.95;;;12.23;;
64667;SDS011;51077;42.716;23.344;2023-02-28T09:29:30;19.13;;;11.18;;
64667;SDS011;51077;42.716;23.344;2023-02-28T09:31:57;23.90;;;12.02;;
64667;SDS011;51077;42.716;23.344;2023-02-28T09:34:26;20.30;;;12.18;;
64667;SDS011;51077;42.716;23.344;2023-02-28T09:36:52;24.27;;;11.45;;
64667;SDS011;51077;42.716;23.344;2023-02-28T09:39:19;20.10;;;11.88;;
64667;SDS011;51077;42.716;23.344;2023-02-28T09:41:47;20.17;;;11.75;;
64667;SDS011;51077;42.716;23.344;2023-02-28T09:44:24;20.58;;;11.38;;
64667;SDS011;51077;42.716;23.344;2023-02-28T09:47:04;19.75;;;10.98;;
64667;SDS011;51077;42.716;23.344;2023-02-28T09:49:34;25.15;;;12.95;;
64667;SDS011;51077;42.716;23.344;2023-02-28T09:52:15;21.75;;;11.95;;
64667;SDS011;51077;42.716;23.344;2023-02-28T09:54:44;25.40;;;12.15;;
64667;SDS011;51077;42.716;23.344;2023-02-28T10:05:36;19.20;;;10.52;;
64667;SDS011;51077;42.716;23.344;2023-02-28T10:08:25;19.27;;;10.05;;
64667;SDS011;51077;42.716;23.344;2023-02-28T10:10:55;22.52;;;9.88;;
64667;SDS011;51077;42.716;23.344;2023-02-28T10:16:20;18.45;;;9.98;;
64667;SDS011;51077;42.716;23.344;2023-02-28T10:18:51;16.88;;;9.45;;
64667;SDS011;51077;42.716;23.344;2023-02-28T10:21:31;16.10;;;9.48;;
64667;SDS011;51077;42.716;23.344;2023-02-28T10:24:03;19.65;;;9.75;;
64667;SDS011;51077;42.716;23.344;2023-02-28T10:26:49;18.60;;;9.18;;
64667;SDS011;51077;42.716;23.344;2023-02-28T10:29:21;17.30;;;9.05;;
64667;SDS011;51077;42.716;23.344;2023-02-28T10:31:47;19.13;;;9.13;;
64667;SDS011;51077;42.716;23.344;2023-02-28T10:34:12;14.97;;;8.33;;
64667;SDS011;51077;42.716;23.344;2023-02-28T10:36:38;20.75;;;8.52;;
64667;SDS011;51077;42.716;23.344;2023-02-28T10:42:00;18.20;;;8.82;;
64667;SDS011;51077;42.716;23.344;2023-02-28T10:44:25;13.37;;;7.97;;
64667;SDS011;51077;42.716;23.344;2023-02-28T10:46:51;17.63;;;9.23;;
64667;SDS011;51077;42.716;23.344;2023-02-28T10:51:46;19.60;;;8.75;;
64667;SDS011;51077;42.716;23.344;2023-02-28T10:54:50;14.38;;;7.88;;
64667;SDS011;51077;42.716;23.344;2023-02-28T10:57:19;15.02;;;7.53;;
64667;SDS011;51077;42.716;23.344;2023-02-28T10:59:52;16.02;;;8.77;;
64667;SDS011;51077;42.716;23.344;2023-02-28T11:02:31;20.40;;;8.57;;
64667;SDS011;51077;42.716;23.344;2023-02-28T11:04:59;14.52;;;8.60;;
64667;SDS011;51077;42.716;23.344;2023-02-28T11:07:25;17.37;;;8.57;;
64667;SDS011;51077;42.716;23.344;2023-02-28T11:09:53;15.77;;;8.45;;
64667;SDS011;51077;42.716;23.344;2023-02-28T11:12:42;15.98;;;8.98;;
64667;SDS011;51077;42.716;23.344;2023-02-28T11:17:56;12.77;;;8.32;;
64667;SDS011;51077;42.716;23.344;2023-02-28T11:20:26;13.35;;;7.32;;
64667;SDS011;51077;42.716;23.344;2023-02-28T11:22:55;17.33;;;8.45;;
64667;SDS011;51077;42.716;23.344;2023-02-28T11:25:37;16.30;;;8.65;;
64667;SDS011;51077;42.716;23.344;2023-02-28T11:28:04;16.90;;;9.13;;
64667;SDS011;51077;42.716;23.344;2023-02-28T11:30:49;13.77;;;8.35;;
64667;SDS011;51077;42.716;23.344;2023-02-28T11:36:25;20.13;;;9.10;;
64667;SDS011;51077;42.716;23.344;2023-02-28T11:38:54;21.40;;;9.00;;
64667;SDS011;51077;42.716;23.344;2023-02-28T11:44:17;14.85;;;8.93;;
64667;SDS011;51077;42.716;23.344;2023-02-28T11:46:52;13.60;;;8.35;;
64667;SDS011;51077;42.716;23.344;2023-02-28T11:49:29;22.55;;;8.75;;
64667;SDS011;51077;42.716;23.344;2023-02-28T11:59:53;20.53;;;9.23;;
64667;SDS011;51077;42.716;23.344;2023-02-28T12:02:28;17.70;;;8.60;;
64667;SDS011;51077;42.716;23.344;2023-02-28T12:10:30;14.00;;;8.48;;
64667;SDS011;51077;42.716;23.344;2023-02-28T12:18:41;36.33;;;17.88;;
64667;SDS011;51077;42.716;23.344;2023-02-28T12:27:02;27.20;;;13.02;;
64667;SDS011;51077;42.716;23.344;2023-02-28T12:29:39;29.73;;;13.57;;
64667;SDS011;51077;42.716;23.344;2023-02-28T12:32:26;22.85;;;12.00;;
64667;SDS011;51077;42.716;23.344;2023-02-28T12:37:41;17.35;;;10.20;;
64667;SDS011;51077;42.716;23.344;2023-02-28T12:40:26;17.55;;;8.88;;
64667;SDS011;51077;42.716;23.344;2023-02-28T12:43:02;20.10;;;9.07;;
64667;SDS011;51077;42.716;23.344;2023-02-28T12:45:39;14.43;;;7.75;;
64667;SDS011;51077;42.716;23.344;2023-02-28T12:48:09;17.27;;;8.55;;
64667;SDS011;51077;42.716;23.344;2023-02-28T12:50:40;19.08;;;8.60;;
64667;SDS011;51077;42.716;23.344;2023-02-28T12:53:08;16.65;;;9.15;;
64667;SDS011;51077;42.716;23.344;2023-02-28T12:55:41;16.10;;;8.00;;
64667;SDS011;51077;42.716;23.344;2023-02-28T12:58:16;17.98;;;8.45;;
64667;SDS011;51077;42.716;23.344;2023-02-28T13:09:54;19.30;;;8.38;;
64667;SDS011;51077;42.716;23.344;2023-02-28T13:12:22;19.27;;;8.98;;
64667;SDS011;51077;42.716;23.344;2023-02-28T13:14:48;16.87;;;9.10;;
64667;SDS011;51077;42.716;23.344;2023-02-28T13:17:19;14.88;;;8.70;;
64667;SDS011;51077;42.716;23.344;2023-02-28T13:24:54;17.25;;;8.38;;
64667;SDS011;51077;42.716;23.344;2023-02-28T13:33:36;19.80;;;9.45;;
64667;SDS011;51077;42.716;23.344;2023-02-28T13:38:45;19.55;;;10.23;;
64667;SDS011;51077;42.716;23.344;2023-02-28T13:46:36;18.25;;;9.73;;
64667;SDS011;51077;42.716;23.344;2023-02-28T13:51:51;18.08;;;10.00;;
64667;SDS011;51077;42.716;23.344;2023-02-28T14:05:20;16.45;;;8.80;;
64667;SDS011;51077;42.716;23.344;2023-02-28T14:07:52;18.95;;;9.18;;
64667;SDS011;51077;42.716;23.344;2023-02-28T14:10:29;17.77;;;8.55;;
64667;SDS011;51077;42.716;23.344;2023-02-28T14:15:39;18.90;;;9.02;;
64667;SDS011;51077;42.716;23.344;2023-02-28T14:18:22;20.23;;;8.40;;
64667;SDS011;51077;42.716;23.344;2023-02-28T14:32:14;18.63;;;8.65;;
64667;SDS011;51077;42.716;23.344;2023-02-28T14:37:01;18.40;;;9.85;;
64667;SDS011;51077;42.716;23.344;2023-02-28T14:39:28;16.70;;;8.52;;
64667;SDS011;51077;42.716;23.344;2023-02-28T14:41:56;19.48;;;8.32;;
64667;SDS011;51077;42.716;23.344;2023-02-28T14:44:28;13.38;;;8.60;;
64667;SDS011;51077;42.716;23.344;2023-02-28T14:46:57;18.77;;;8.50;;
64667;SDS011;51077;42.716;23.344;2023-02-28T14:49:34;18.35;;;8.02;;
64667;SDS011;51077;42.716;23.344;2023-02-28T14:54:31;22.92;;;9.82;;
64667;SDS011;51077;42.716;23.344;2023-02-28T14:56:57;18.45;;;9.40;;
64667;SDS011;51077;42.716;23.344;2023-02-28T14:59:24;19.20;;;9.10;;
64667;SDS011;51077;42.716;23.344;2023-02-28T15:02:20;19.92;;;9.15;;
64667;SDS011;51077;42.716;23.344;2023-02-28T15:04:57;14.27;;;8.52;;
64667;SDS011;51077;42.716;23.344;2023-02-28T15:07:35;14.87;;;8.53;;
64667;SDS011;51077;42.716;23.344;2023-02-28T15:12:32;17.30;;;9.00;;
64667;SDS011;51077;42.716;23.344;2023-02-28T15:14:59;15.88;;;9.57;;
64667;SDS011;51077;42.716;23.344;2023-02-28T15:17:24;13.87;;;8.13;;
64667;SDS011;51077;42.716;23.344;2023-02-28T15:19:51;14.05;;;8.68;;
64667;SDS011;51077;42.716;23.344;2023-02-28T15:22:19;17.42;;;9.10;;
64667;SDS011;51077;42.716;23.344;2023-02-28T15:24:54;17.73;;;9.00;;
64667;SDS011;51077;42.716;23.344;2023-02-28T15:27:25;14.45;;;8.73;;
64667;SDS011;51077;42.716;23.344;2023-02-28T15:29:55;15.27;;;8.43;;
64667;SDS011;51077;42.716;23.344;2023-02-28T15:32:30;11.05;;;8.23;;
64667;SDS011;51077;42.716;23.344;2023-02-28T15:35:17;16.02;;;8.75;;
64667;SDS011;51077;42.716;23.344;2023-02-28T15:37:47;12.35;;;8.38;;
64667;SDS011;51077;42.716;23.344;2023-02-28T15:40:26;16.75;;;8.30;;
64667;SDS011;51077;42.716;23.344;2023-02-28T15:45:32;12.10;;;7.90;;
64667;SDS011;51077;42.716;23.344;2023-02-28T15:48:04;13.70;;;8.00;;
64667;SDS011;51077;42.716;23.344;2023-02-28T15:53:03;10.80;;;7.70;;
64667;SDS011;51077;42.716;23.344;2023-02-28T15:55:28;13.23;;;7.80;;
64667;SDS011;51077;42.716;23.344;2023-02-28T15:57:56;12.85;;;8.27;;
64667;SDS011;51077;42.716;23.344;2023-02-28T16:00:25;15.02;;;8.65;;
64667;SDS011;51077;42.716;23.344;2023-02-28T16:02:52;14.13;;;9.25;;
64667;SDS011;51077;42.716;23.344;2023-02-28T16:07:55;12.55;;;8.07;;
64667;SDS011;51077;42.716;23.344;2023-02-28T16:10:23;16.60;;;9.02;;
64667;SDS011;51077;42.716;23.344;2023-02-28T16:12:52;16.05;;;8.18;;
64667;SDS011;51077;42.716;23.344;2023-02-28T16:15:26;14.25;;;7.97;;
64667;SDS011;51077;42.716;23.344;2023-02-28T16:17:53;15.93;;;8.20;;
64667;SDS011;51077;42.716;23.344;2023-02-28T16:20:21;15.38;;;8.13;;
64667;SDS011;51077;42.716;23.344;2023-02-28T16:22:49;12.98;;;8.23;;
64667;SDS011;51077;42.716;23.344;2023-02-28T16:25:16;13.05;;;8.23;;
64667;SDS011;51077;42.716;23.344;2023-02-28T16:27:45;17.48;;;9.00;;
64667;SDS011;51077;42.716;23.344;2023-02-28T16:30:24;13.02;;;7.32;;
64667;SDS011;51077;42.716;23.344;2023-02-28T16:32:52;11.25;;;6.90;;
64667;SDS011;51077;42.716;23.344;2023-02-28T16:35:20;12.88;;;7.15;;
64667;SDS011;51077;42.716;23.344;2023-02-28T16:37:46;12.23;;;7.57;;
64667;SDS011;51077;42.716;23.344;2023-02-28T16:40:16;11.43;;;7.25;;
64667;SDS011;51077;42.716;23.344;2023-02-28T16:42:45;11.27;;;7.68;;
64667;SDS011;51077;42.716;23.344;2023-02-28T16:45:18;10.57;;;6.65;;
64667;SDS011;51077;42.716;23.344;2023-02-28T16:47:47;14.15;;;7.70;;
64667;SDS011;51077;42.716;23.344;2023-02-28T16:50:17;13.10;;;7.17;;
64667;SDS011;51077;42.716;23.344;2023-02-28T16:52:50;12.00;;;6.68;;
64667;SDS011;51077;42.716;23.344;2023-02-28T16:55:20;14.00;;;6.60;;
64667;SDS011;51077;42.716;23.344;2023-02-28T16:57:55;13.15;;;6.90;;